Time;durP1;ratioP1;P1;durP2;ratioP2;P2;SDS_P1;SDS_P2;PMS_P1;PMS_P2;Temp;Humidity;BMP_temperature;BMP_pressure;BME280_temperature;BME280_humidity;BME280_pressure;Samples;Min_cycle;Max_cycle;Signal;HPM_P1;HPM_P2
2023/07/07 00:02:05;;;;;;;2.80;2.13;;;14.70;99.90;;;;;;5086797;28;20204;-69
2023/07/07 00:04:31;;;;;;;5.13;2.00;;;14.60;99.90;;;;;;5079288;28;20193;-69
2023/07/07 00:06:57;;;;;;;2.93;2.10;;;14.60;99.90;;;;;;5085998;28;20233;-69
2023/07/07 00:09:24;;;;;;;2.57;2.37;;;14.70;99.90;;;;;;5085825;28;20179;-69
2023/07/07 00:11:50;;;;;;;2.67;2.47;;;14.70;99.90;;;;;;5084944;28;20198;-69
2023/07/07 00:14:16;;;;;;;2.70;2.50;;;14.80;99.90;;;;;;5082378;28;20422;-69
2023/07/07 00:16:42;;;;;;;2.40;2.20;;;14.80;99.90;;;;;;5083650;28;20245;-69
2023/07/07 00:19:09;;;;;;;3.27;2.63;;;14.70;99.90;;;;;;5079855;28;20923;-69
2023/07/07 00:21:38;;;;;;;2.57;2.23;;;14.50;99.90;;;;;;5083363;28;20204;-69
2023/07/07 00:24:05;;;;;;;4.80;2.70;;;14.40;99.90;;;;;;5085322;28;20442;-69
2023/07/07 00:26:32;;;;;;;2.90;2.10;;;14.40;99.90;;;;;;5084973;28;20504;-69
2023/07/07 00:28:59;;;;;;;7.07;3.20;;;14.40;99.90;;;;;;5110060;28;20792;-69
2023/07/07 00:31:25;;;;;;;3.47;2.57;;;14.40;99.90;;;;;;5110290;28;20439;-69
2023/07/07 00:33:50;;;;;;;2.53;2.33;;;14.50;99.90;;;;;;5109320;28;20948;-69
2023/07/07 00:36:17;;;;;;;4.27;2.60;;;14.60;99.90;;;;;;5110472;28;20496;-69
2023/07/07 00:38:43;;;;;;;2.50;1.90;;;14.60;99.90;;;;;;5110068;28;20764;-69
2023/07/07 00:41:09;;;;;;;2.73;2.47;;;14.60;99.90;;;;;;5110311;28;20425;-69
2023/07/07 00:43:36;;;;;;;2.10;1.90;;;14.60;99.90;;;;;;5109117;28;20168;-69
2023/07/07 00:46:02;;;;;;;4.97;2.60;;;14.50;99.90;;;;;;5104639;28;20450;-69
2023/07/07 00:48:42;;;;;;;3.43;2.27;;;14.40;99.90;;;;;;5089460;28;20402;-69
2023/07/07 00:51:18;;;;;;;3.43;2.47;;;14.40;99.90;;;;;;5089821;28;20521;-69
2023/07/07 00:53:47;;;;;;;2.83;2.37;;;14.40;99.90;;;;;;5088623;28;20759;-68
2023/07/07 00:56:25;;;;;;;2.53;2.20;;;14.40;99.90;;;;;;5089964;28;20406;-69
2023/07/07 00:58:51;;;;;;;4.00;2.20;;;14.20;99.90;;;;;;5088355;28;20457;-68
2023/07/07 01:01:18;;;;;;;3.60;2.20;;;14.10;99.90;;;;;;5089801;28;20422;-69
2023/07/07 01:03:47;;;;;;;3.30;2.37;;;14.10;99.90;;;;;;5087644;28;20852;-70
2023/07/07 01:06:17;;;;;;;4.20;2.63;;;14.20;99.90;;;;;;5089624;28;20467;-68
2023/07/07 01:08:47;;;;;;;2.63;2.30;;;14.30;99.90;;;;;;5089577;28;20787;-69
2023/07/07 01:11:16;;;;;;;4.10;2.63;;;14.30;99.90;;;;;;5089476;28;20434;-69
2023/07/07 01:13:42;;;;;;;3.47;2.50;;;14.40;99.90;;;;;;5088111;28;20497;-69
2023/07/07 01:16:22;;;;;;;2.77;2.43;;;14.40;99.90;;;;;;5089396;28;20513;-69
2023/07/07 01:19:16;;;;;;;6.67;2.77;;;14.50;99.90;;;;;;5089125;28;20294;-69
2023/07/07 01:22:00;;;;;;;2.87;2.67;;;14.50;99.90;;;;;;5088568;28;20439;-68
2023/07/07 01:24:44;;;;;;;3.00;2.50;;;14.50;99.90;;;;;;5087389;28;20411;-69
2023/07/07 01:27:19;;;;;;;3.40;2.83;;;14.50;99.90;;;;;;5099753;28;20842;-69
2023/07/07 01:30:17;;;;;;;3.17;2.80;;;14.60;99.90;;;;;;5109369;28;20499;-69
2023/07/07 01:32:44;;;;;;;2.43;2.23;;;14.60;99.90;;;;;;5108645;28;21139;-69
2023/07/07 01:35:20;;;;;;;4.87;2.43;;;14.60;99.90;;;;;;5108932;28;20405;-69
2023/07/07 01:37:54;;;;;;;4.33;3.10;;;14.70;99.90;;;;;;5109414;28;20461;-69
2023/07/07 01:40:21;;;;;;;6.47;3.10;;;14.70;99.90;;;;;;5109537;28;20429;-69
2023/07/07 01:42:55;;;;;;;2.77;2.47;;;14.70;99.90;;;;;;5108386;28;20408;-69
2023/07/07 01:45:34;;;;;;;3.13;2.83;;;14.70;99.90;;;;;;5108686;28;20417;-69
2023/07/07 01:48:22;;;;;;;2.90;2.47;;;14.70;99.90;;;;;;5067685;28;20412;-69
2023/07/07 01:50:50;;;;;;;3.00;2.70;;;14.70;99.90;;;;;;5068588;28;20431;-68
2023/07/07 01:53:21;;;;;;;3.00;2.67;;;14.70;99.90;;;;;;5065959;28;20777;-69
2023/07/07 01:55:55;;;;;;;4.23;2.50;;;14.60;99.90;;;;;;5068671;28;20461;-70
2023/07/07 01:58:22;;;;;;;3.00;2.70;;;14.60;99.90;;;;;;5068114;28;20514;-69
2023/07/07 02:00:51;;;;;;;2.70;2.50;;;14.60;99.90;;;;;;5067360;28;20787;-68
2023/07/07 02:03:19;;;;;;;3.07;2.87;;;14.60;99.90;;;;;;5067252;28;20430;-69
2023/07/07 02:05:46;;;;;;;3.10;2.60;;;14.60;99.90;;;;;;5068529;28;20901;-69
2023/07/07 02:08:12;;;;;;;3.97;2.67;;;14.60;99.90;;;;;;5068617;28;20446;-70
2023/07/07 02:10:37;;;;;;;3.40;2.77;;;14.60;99.90;;;;;;5068328;28;21345;-69
2023/07/07 02:13:03;;;;;;;3.43;2.67;;;14.60;99.90;;;;;;5067573;28;20419;-68
2023/07/07 02:15:29;;;;;;;3.20;2.40;;;14.60;99.90;;;;;;5071230;28;20262;-69
2023/07/07 02:17:55;;;;;;;4.43;2.83;;;14.60;99.90;;;;;;5072123;28;20226;-69
2023/07/07 02:20:20;;;;;;;3.53;2.83;;;14.70;99.90;;;;;;5073011;28;20223;-69
2023/07/07 02:22:46;;;;;;;3.40;2.97;;;14.60;99.90;;;;;;5091491;28;20411;-69
2023/07/07 02:25:12;;;;;;;3.40;2.80;;;14.60;99.90;;;;;;5091974;28;20684;-69
2023/07/07 02:27:38;;;;;;;3.57;2.97;;;14.60;99.90;;;;;;5092131;28;20414;-69
2023/07/07 02:30:04;;;;;;;5.97;3.00;;;14.50;99.90;;;;;;5092190;28;20172;-69
2023/07/07 02:32:30;;;;;;;4.30;3.40;;;14.50;99.90;;;;;;5091402;28;20183;-68
2023/07/07 02:34:58;;;;;;;3.87;3.00;;;14.40;99.90;;;;;;5091701;28;20414;-69
2023/07/07 02:37:24;;;;;;;8.30;2.87;;;14.40;99.90;;;;;;5092029;28;20653;-69
2023/07/07 02:39:50;;;;;;;3.07;2.73;;;14.30;99.90;;;;;;5090804;28;20463;-69
2023/07/07 02:42:16;;;;;;;4.20;3.00;;;14.30;99.90;;;;;;5091453;28;20951;-69
2023/07/07 02:44:42;;;;;;;3.07;2.70;;;14.20;99.90;;;;;;5091444;28;20263;-69
2023/07/07 02:47:08;;;;;;;2.77;2.57;;;14.10;99.90;;;;;;5091921;28;20236;-69
2023/07/07 02:49:34;;;;;;;4.87;2.80;;;14.00;99.90;;;;;;5091813;28;20421;-69
2023/07/07 02:52:00;;;;;;;3.23;2.67;;;14.00;99.90;;;;;;5091172;28;20521;-69
2023/07/07 02:54:26;;;;;;;4.90;2.60;;;14.10;99.90;;;;;;5088508;28;20859;-69
2023/07/07 02:56:53;;;;;;;2.90;2.50;;;14.00;99.90;;;;;;5091058;28;20680;-69
2023/07/07 02:59:19;;;;;;;3.57;3.00;;;14.00;99.90;;;;;;5091566;28;20490;-69
2023/07/07 03:01:45;;;;;;;3.00;2.57;;;14.00;99.90;;;;;;5091566;28;20517;-69
2023/07/07 03:04:11;;;;;;;3.50;3.03;;;14.00;99.90;;;;;;5090461;28;20195;-69
2023/07/07 03:06:37;;;;;;;3.40;3.10;;;14.00;99.90;;;;;;5091668;28;20438;-68
2023/07/07 03:09:04;;;;;;;6.73;2.93;;;14.00;99.90;;;;;;5091578;28;20453;-69
2023/07/07 03:11:30;;;;;;;4.07;2.70;;;14.00;99.90;;;;;;5091428;28;20223;-69
2023/07/07 03:13:56;;;;;;;5.07;3.30;;;13.90;99.90;;;;;;5090500;28;20442;-69
2023/07/07 03:16:24;;;;;;;3.40;2.80;;;13.80;99.90;;;;;;5091292;28;20187;-69
2023/07/07 03:18:52;;;;;;;3.63;2.67;;;13.70;99.90;;;;;;5090935;28;20450;-69
2023/07/07 03:21:20;;;;;;;4.77;3.10;;;13.70;99.90;;;;;;5091236;28;20536;-70
2023/07/07 03:23:46;;;;;;;3.27;2.97;;;13.70;99.90;;;;;;5090418;28;20421;-69
2023/07/07 03:26:17;;;;;;;3.50;3.20;;;13.70;99.90;;;;;;5086959;28;20419;-69
2023/07/07 03:28:43;;;;;;;4.27;2.50;;;13.70;99.90;;;;;;5089577;28;20184;-69
2023/07/07 03:31:16;;;;;;;3.10;2.60;;;13.70;99.90;;;;;;5090882;28;20432;-69
2023/07/07 03:33:44;;;;;;;3.70;2.73;;;13.70;99.90;;;;;;5090115;28;20468;-68
2023/07/07 03:36:12;;;;;;;4.87;2.77;;;13.60;99.90;;;;;;5091007;28;20418;-68
2023/07/07 03:38:41;;;;;;;5.80;2.87;;;13.50;99.90;;;;;;5091044;28;20446;-70
2023/07/07 03:41:11;;;;;;;3.23;2.63;;;13.40;99.90;;;;;;5087624;28;20446;-70
2023/07/07 03:43:37;;;;;;;3.70;2.90;;;13.20;99.90;;;;;;5089530;28;20426;-70
2023/07/07 03:46:04;;;;;;;3.87;3.20;;;13.20;99.90;;;;;;5090630;28;20419;-70
2023/07/07 03:48:30;;;;;;;3.30;2.87;;;13.20;99.90;;;;;;5090802;28;20414;-70
2023/07/07 03:51:04;;;;;;;4.30;2.93;;;13.20;99.90;;;;;;5090544;28;20434;-70
2023/07/07 03:53:31;;;;;;;2.70;2.50;;;13.20;99.90;;;;;;5087933;28;20418;-68
2023/07/07 03:55:58;;;;;;;3.90;2.77;;;13.30;99.90;;;;;;5090502;28;20943;-69
2023/07/07 03:58:25;;;;;;;4.23;3.10;;;13.40;99.90;;;;;;5089635;28;20482;-68
2023/07/07 04:00:51;;;;;;;3.90;3.40;;;13.40;99.90;;;;;;5090312;28;20422;-68
2023/07/07 04:03:18;;;;;;;3.10;2.80;;;13.40;99.90;;;;;;5088311;28;21160;-69
2023/07/07 04:05:46;;;;;;;3.30;3.00;;;13.40;99.90;;;;;;5090406;28;20468;-69
2023/07/07 04:08:12;;;;;;;3.43;3.00;;;13.30;99.90;;;;;;5090495;28;20406;-68
2023/07/07 04:10:40;;;;;;;3.23;2.93;;;13.30;99.90;;;;;;5090238;28;20591;-69
2023/07/07 04:13:07;;;;;;;3.60;3.10;;;13.30;99.90;;;;;;5089402;28;20418;-68
2023/07/07 04:15:33;;;;;;;3.93;2.70;;;13.30;99.90;;;;;;5084948;28;20881;-69
2023/07/07 04:17:59;;;;;;;4.33;3.00;;;13.30;99.90;;;;;;5088745;28;20470;-69
2023/07/07 04:20:25;;;;;;;3.47;3.13;;;13.40;99.90;;;;;;5089987;28;20529;-69
2023/07/07 04:22:51;;;;;;;3.97;3.03;;;13.60;99.90;;;;;;5089540;28;20410;-69
2023/07/07 04:25:18;;;;;;;3.83;2.83;;;13.60;99.90;;;;;;5086946;28;20427;-69
2023/07/07 04:27:44;;;;;;;3.40;3.00;;;13.70;99.90;;;;;;5091544;28;20200;-69
2023/07/07 04:30:11;;;;;;;4.47;3.17;;;13.80;99.90;;;;;;5089728;28;20437;-69
2023/07/07 04:32:39;;;;;;;4.23;3.07;;;13.80;99.90;;;;;;5089028;28;20413;-69
2023/07/07 04:35:05;;;;;;;3.17;2.57;;;13.90;99.90;;;;;;5089534;28;20426;-69
2023/07/07 04:37:31;;;;;;;4.40;2.77;;;13.90;99.90;;;;;;5089407;28;20447;-69
2023/07/07 04:39:58;;;;;;;2.83;2.53;;;14.00;99.90;;;;;;5089698;28;20837;-69
2023/07/07 04:42:24;;;;;;;2.70;2.50;;;14.10;99.90;;;;;;5087617;28;20426;-69
2023/07/07 04:44:50;;;;;;;3.10;2.80;;;14.20;99.90;;;;;;5089188;28;20435;-69
2023/07/07 04:47:15;;;;;;;5.27;2.80;;;14.20;99.90;;;;;;5089527;28;20418;-70
2023/07/07 04:49:41;;;;;;;3.10;2.80;;;14.30;99.90;;;;;;5089737;28;20184;-69
2023/07/07 04:52:07;;;;;;;4.27;2.83;;;14.40;99.90;;;;;;5085569;28;20982;-69
2023/07/07 04:54:35;;;;;;;4.37;3.17;;;14.50;99.90;;;;;;5087526;28;20259;-69
2023/07/07 04:57:03;;;;;;;3.73;3.20;;;14.60;99.90;;;;;;5083171;28;20438;-69
2023/07/07 04:59:30;;;;;;;3.40;2.57;;;14.70;99.90;;;;;;5083815;28;20431;-69
2023/07/07 05:01:56;;;;;;;3.07;2.77;;;14.80;99.90;;;;;;5086692;28;20450;-69
2023/07/07 05:04:22;;;;;;;3.10;2.80;;;14.80;99.90;;;;;;5088272;28;20491;-69
2023/07/07 05:06:48;;;;;;;3.20;2.90;;;14.90;99.90;;;;;;5088006;28;20644;-69
2023/07/07 05:09:15;;;;;;;3.10;2.63;;;15.10;99.90;;;;;;5085323;28;20188;-69
2023/07/07 05:11:41;;;;;;;3.87;2.80;;;15.20;99.90;;;;;;5086703;28;20216;-69
2023/07/07 05:14:07;;;;;;;3.53;2.27;;;15.30;99.90;;;;;;5088042;28;20422;-69
2023/07/07 05:16:36;;;;;;;4.50;2.40;;;15.50;99.90;;;;;;5088893;28;20426;-69
2023/07/07 05:19:02;;;;;;;4.33;2.80;;;15.60;99.90;;;;;;5089334;28;20200;-69
2023/07/07 05:21:28;;;;;;;3.87;3.30;;;15.70;99.90;;;;;;5076621;28;20443;-68
2023/07/07 05:23:54;;;;;;;2.87;2.43;;;15.90;99.90;;;;;;5075449;28;20429;-69
2023/07/07 05:26:22;;;;;;;2.90;2.20;;;16.00;99.90;;;;;;5088365;28;20411;-69
2023/07/07 05:28:48;;;;;;;3.40;2.60;;;16.20;99.90;;;;;;5087475;28;20931;-69
2023/07/07 05:31:14;;;;;;;3.20;2.00;;;16.30;99.90;;;;;;5084071;28;20834;-69
2023/07/07 05:33:40;;;;;;;2.90;2.60;;;16.40;99.90;;;;;;5079566;28;20418;-69
2023/07/07 05:36:08;;;;;;;4.10;2.27;;;16.60;99.90;;;;;;5071381;28;20550;-68
2023/07/07 05:38:35;;;;;;;4.07;2.37;;;16.80;99.90;;;;;;5070079;28;20463;-69
2023/07/07 05:41:01;;;;;;;2.60;2.40;;;16.90;99.90;;;;;;5088887;28;20434;-68
2023/07/07 05:43:27;;;;;;;4.50;2.30;;;17.10;99.90;;;;;;5087688;28;20414;-69
2023/07/07 05:46:05;;;;;;;4.10;2.30;;;17.30;99.90;;;;;;5087293;28;20259;-68
2023/07/07 05:48:31;;;;;;;2.63;2.30;;;17.40;99.90;;;;;;5088813;28;20413;-69
2023/07/07 05:51:00;;;;;;;3.00;2.17;;;17.60;99.90;;;;;;5089724;28;20940;-69
2023/07/07 05:53:27;;;;;;;4.57;2.20;;;17.80;99.90;;;;;;5091792;28;21068;-68
2023/07/07 05:55:58;;;;;;;4.40;2.53;;;17.90;99.90;;;;;;5091761;28;20417;-69
2023/07/07 05:58:23;;;;;;;2.30;2.10;;;18.20;99.90;;;;;;5091410;28;20454;-69
2023/07/07 06:00:49;;;;;;;3.40;2.60;;;18.40;99.90;;;;;;5092818;28;20437;-68
2023/07/07 06:03:15;;;;;;;3.40;2.27;;;18.60;99.90;;;;;;5089511;28;20245;-69
2023/07/07 06:05:40;;;;;;;3.07;2.30;;;18.70;99.90;;;;;;5084911;28;20846;-69
2023/07/07 06:08:07;;;;;;;2.70;2.40;;;18.90;99.90;;;;;;5092506;28;20272;-69
2023/07/07 06:10:33;;;;;;;2.80;1.80;;;19.10;99.90;;;;;;5092518;28;20196;-69
2023/07/07 06:13:00;;;;;;;3.07;2.33;;;19.20;99.90;;;;;;5086274;28;20647;-68
2023/07/07 06:15:26;;;;;;;2.27;1.77;;;19.30;99.90;;;;;;5088046;28;20215;-69
2023/07/07 06:17:51;;;;;;;2.90;2.33;;;19.40;99.90;;;;;;5092019;28;21191;-69
2023/07/07 06:20:17;;;;;;;2.47;2.00;;;19.60;99.90;;;;;;5084665;28;20225;-69
2023/07/07 06:22:43;;;;;;;3.10;2.07;;;19.80;99.90;;;;;;5086531;28;20728;-69
2023/07/07 06:25:09;;;;;;;5.53;2.47;;;19.90;99.90;;;;;;5085555;28;20195;-69
2023/07/07 06:27:35;;;;;;;2.30;2.10;;;19.90;99.90;;;;;;5085215;28;20181;-69
2023/07/07 06:30:00;;;;;;;2.10;1.93;;;19.90;99.90;;;;;;5087451;28;20237;-68
2023/07/07 06:32:26;;;;;;;4.63;2.17;;;19.90;99.90;;;;;;5086266;28;20192;-69
2023/07/07 06:34:52;;;;;;;2.80;2.20;;;19.70;99.90;;;;;;5081598;28;20196;-69
2023/07/07 06:37:17;;;;;;;3.30;2.30;;;19.70;99.90;;;;;;5080937;28;20724;-69
2023/07/07 06:39:43;;;;;;;4.10;2.33;;;19.80;99.90;;;;;;5082651;28;20172;-68
2023/07/07 06:42:09;;;;;;;4.40;2.20;;;19.80;99.90;;;;;;5084603;28;20291;-69
2023/07/07 06:44:38;;;;;;;3.23;2.40;;;19.90;99.90;;;;;;5091085;28;20179;-69
2023/07/07 06:47:05;;;;;;;2.20;2.00;;;19.90;99.90;;;;;;5085033;28;20506;-69
2023/07/07 06:49:31;;;;;;;3.20;2.10;;;20.00;99.90;;;;;;5091747;28;20422;-69
2023/07/07 06:51:57;;;;;;;2.37;1.93;;;20.00;99.90;;;;;;5085640;28;20685;-69
2023/07/07 06:54:22;;;;;;;2.90;1.87;;;20.10;99.90;;;;;;5090660;28;20184;-69
2023/07/07 06:56:48;;;;;;;2.73;2.13;;;20.10;99.90;;;;;;5088232;28;20184;-69
2023/07/07 06:59:14;;;;;;;3.63;2.00;;;20.20;99.90;;;;;;5090491;28;20214;-68
2023/07/07 07:01:40;;;;;;;5.33;2.53;;;20.30;99.90;;;;;;5087970;28;20309;-68
2023/07/07 07:04:05;;;;;;;2.10;1.90;;;20.40;99.90;;;;;;5089890;28;20219;-68
2023/07/07 07:06:31;;;;;;;2.63;2.20;;;20.50;99.90;;;;;;5088055;28;20427;-69
2023/07/07 07:08:58;;;;;;;4.90;2.10;;;20.60;99.90;;;;;;5091160;28;20711;-69
2023/07/07 07:11:24;;;;;;;4.23;2.57;;;20.60;99.90;;;;;;5079922;28;20466;-69
2023/07/07 07:13:50;;;;;;;3.40;2.30;;;20.70;99.90;;;;;;5083411;28;20187;-69
2023/07/07 07:16:16;;;;;;;2.60;2.27;;;20.70;99.90;;;;;;5083345;28;20205;-69
2023/07/07 07:18:42;;;;;;;2.17;1.97;;;20.80;99.90;;;;;;5084757;28;20989;-69
2023/07/07 07:21:07;;;;;;;2.67;2.37;;;20.80;99.90;;;;;;5091334;28;20223;-69
2023/07/07 07:23:33;;;;;;;3.13;2.53;;;20.90;99.90;;;;;;5085570;28;20196;-68
2023/07/07 07:25:59;;;;;;;4.43;2.30;;;21.00;99.90;;;;;;5087496;28;20187;-69
2023/07/07 07:28:24;;;;;;;2.67;2.43;;;21.00;99.90;;;;;;5083222;28;20195;-69
2023/07/07 07:30:50;;;;;;;2.97;1.90;;;21.10;99.90;;;;;;5090320;28;20731;-68
2023/07/07 07:33:19;;;;;;;4.40;2.73;;;21.10;99.90;;;;;;5083581;28;20185;-69
2023/07/07 07:35:46;;;;;;;2.80;2.30;;;21.10;99.90;;;;;;5089985;28;20176;-69
2023/07/07 07:38:11;;;;;;;2.70;2.30;;;21.20;99.90;;;;;;5087389;28;20896;-68
2023/07/07 07:40:37;;;;;;;2.87;2.27;;;21.20;99.90;;;;;;5089335;28;20462;-69
2023/07/07 07:43:03;;;;;;;2.50;2.30;;;21.30;99.90;;;;;;5086749;28;20184;-69
2023/07/07 07:45:28;;;;;;;2.63;2.30;;;21.40;99.90;;;;;;5090570;28;20176;-69
2023/07/07 07:47:54;;;;;;;3.00;2.40;;;21.40;99.90;;;;;;5089659;28;20181;-69
2023/07/07 07:50:21;;;;;;;7.83;2.30;;;21.40;99.90;;;;;;5086970;28;20283;-69
2023/07/07 07:52:47;;;;;;;3.67;2.23;;;21.50;99.90;;;;;;5089725;28;20188;-69
2023/07/07 07:55:14;;;;;;;2.57;2.37;;;21.50;99.90;;;;;;5086548;28;20484;-69
2023/07/07 07:57:43;;;;;;;2.10;1.90;;;21.50;99.70;;;;;;5087791;28;20600;-69
2023/07/07 08:00:10;;;;;;;3.67;2.13;;;21.60;99.80;;;;;;5079912;28;20429;-69
2023/07/07 08:02:37;;;;;;;2.53;1.87;;;21.60;99.50;;;;;;5086976;28;20407;-68
2023/07/07 08:05:03;;;;;;;2.37;1.90;;;21.60;99.90;;;;;;5085537;28;20977;-69
2023/07/07 08:07:30;;;;;;;3.30;2.27;;;21.70;99.90;;;;;;5088324;28;20471;-69
2023/07/07 08:09:56;;;;;;;5.63;2.20;;;21.70;99.90;;;;;;5086490;28;20426;-69
2023/07/07 08:12:21;;;;;;;3.43;2.43;;;21.80;99.90;;;;;;5088861;28;20817;-69
2023/07/07 08:14:47;;;;;;;5.07;2.57;;;21.80;99.90;;;;;;5086266;28;20184;-69
2023/07/07 08:17:14;;;;;;;3.80;2.10;;;21.90;99.90;;;;;;5089934;28;20414;-69
2023/07/07 08:19:41;;;;;;;2.37;2.17;;;21.90;99.90;;;;;;5087054;28;20181;-69
2023/07/07 08:22:12;;;;;;;3.10;2.23;;;22.00;99.90;;;;;;5085050;28;20430;-69
2023/07/07 08:24:49;;;;;;;4.10;2.07;;;22.10;99.90;;;;;;5087030;28;20464;-69
2023/07/07 08:27:16;;;;;;;2.00;1.90;;;22.10;99.20;;;;;;5084765;28;20446;-69
2023/07/07 08:29:42;;;;;;;2.23;2.03;;;22.20;98.90;;;;;;5089176;28;20410;-69
2023/07/07 08:32:10;;;;;;;3.70;2.10;;;22.20;98.20;;;;;;5072302;28;20558;-69
2023/07/07 08:34:37;;;;;;;3.60;1.83;;;22.20;98.10;;;;;;5088876;28;20827;-69
2023/07/07 08:37:02;;;;;;;2.23;2.03;;;22.20;96.80;;;;;;5086135;28;20487;-69
2023/07/07 08:39:29;;;;;;;3.23;2.10;;;22.30;94.80;;;;;;5089468;28;20418;-69
2023/07/07 08:42:17;;;;;;;4.83;2.10;;;22.40;95.10;;;;;;5086029;28;20648;-69
2023/07/07 08:44:42;;;;;;;2.80;2.07;;;22.40;94.20;;;;;;5086888;28;20973;-69
2023/07/07 08:47:12;;;;;;;3.40;2.23;;;22.60;93.00;;;;;;5083339;28;20431;-69
2023/07/07 08:49:45;;;;;;;2.43;2.20;;;22.60;94.00;;;;;;5089203;28;20602;-69
2023/07/07 08:52:14;;;;;;;2.53;2.20;;;22.70;94.20;;;;;;5083150;28;20491;-69
2023/07/07 08:54:48;;;;;;;2.70;2.30;;;22.80;93.70;;;;;;5088603;28;20449;-69
2023/07/07 08:57:17;;;;;;;2.30;2.10;;;22.90;92.90;;;;;;5084560;28;20488;-69
2023/07/07 08:59:42;;;;;;;2.73;2.30;;;23.00;91.80;;;;;;5087874;28;20452;-69
2023/07/07 09:02:27;;;;;;;2.63;2.13;;;23.00;93.20;;;;;;5084217;28;20442;-69
2023/07/07 09:05:21;;;;;;;2.77;1.90;;;23.20;93.40;;;;;;5083693;28;20188;-69
2023/07/07 09:08:15;;;;;;;5.77;2.00;;;23.30;92.30;;;;;;5080692;28;20422;-69
2023/07/07 09:10:52;;;;;;;3.60;2.30;;;23.40;91.50;;;;;;5087648;28;20987;-69
2023/07/07 09:13:47;;;;;;;3.13;2.10;;;23.50;91.80;;;;;;5081786;28;20509;-69
2023/07/07 09:16:25;;;;;;;2.37;2.17;;;23.60;92.70;;;;;;5078809;28;20497;-69
2023/07/07 09:19:00;;;;;;;3.20;2.17;;;23.70;91.80;;;;;;5084705;28;20485;-69
2023/07/07 09:21:33;;;;;;;4.77;2.33;;;23.90;91.00;;;;;;5089002;28;20810;-69
2023/07/07 09:24:24;;;;;;;6.33;2.20;;;24.00;90.30;;;;;;5083278;28;20433;-68
2023/07/07 09:26:53;;;;;;;2.80;2.47;;;24.10;90.30;;;;;;5085889;28;20414;-69
2023/07/07 09:29:27;;;;;;;2.80;2.30;;;24.20;87.20;;;;;;5085208;28;20838;-69
2023/07/07 09:31:54;;;;;;;2.37;1.97;;;24.20;87.40;;;;;;5088763;28;20484;-69
2023/07/07 09:34:21;;;;;;;3.60;2.23;;;24.30;88.10;;;;;;5080942;28;20518;-69
2023/07/07 09:37:09;;;;;;;2.50;2.30;;;24.30;87.40;;;;;;5080719;28;20950;-69
2023/07/07 09:39:40;;;;;;;2.60;2.07;;;24.50;87.70;;;;;;5073422;28;20435;-69
2023/07/07 09:42:44;;;;;;;3.10;2.17;;;24.50;87.70;;;;;;5081341;28;20517;-69
2023/07/07 09:45:34;;;;;;;2.47;2.20;;;24.60;89.90;;;;;;5062965;28;21004;-69
2023/07/07 09:48:46;;;;;;;3.40;2.50;;;24.70;87.80;;;;;;5068109;28;20818;-69
2023/07/07 09:51:41;;;;;;;3.00;1.97;;;24.80;88.60;;;;;;5083009;28;20520;-69
2023/07/07 09:54:13;;;;;;;2.57;1.97;;;24.90;87.50;;;;;;5083727;28;20425;-69
2023/07/07 09:56:55;;;;;;;3.03;2.00;;;25.00;84.60;;;;;;5088481;28;20414;-69
2023/07/07 09:59:29;;;;;;;2.70;2.00;;;25.00;85.30;;;;;;5082313;28;20451;-69
2023/07/07 10:01:55;;;;;;;2.90;2.33;;;25.10;86.90;;;;;;5088443;28;20787;-69
2023/07/07 10:04:24;;;;;;;2.60;2.30;;;25.20;86.90;;;;;;5083265;28;20445;-69
2023/07/07 10:07:01;;;;;;;3.37;2.40;;;25.20;84.70;;;;;;5086853;28;20421;-69
2023/07/07 10:09:28;;;;;;;2.30;2.07;;;25.20;86.70;;;;;;5085221;28;20426;-69
2023/07/07 10:11:55;;;;;;;3.10;2.30;;;25.20;83.30;;;;;;5079309;28;20431;-69
2023/07/07 10:14:21;;;;;;;2.80;2.00;;;25.20;81.80;;;;;;5084296;28;20427;-69
2023/07/07 10:17:08;;;;;;;3.03;2.40;;;25.30;81.20;;;;;;5088250;28;20434;-69
2023/07/07 10:20:00;;;;;;;5.37;2.60;;;25.40;80.70;;;;;;5085037;28;20562;-69
2023/07/07 10:22:25;;;;;;;2.67;2.20;;;25.40;83.30;;;;;;5083897;28;20399;-69
2023/07/07 10:24:51;;;;;;;2.80;2.53;;;25.50;83.10;;;;;;5084949;28;20411;-69
2023/07/07 10:27:23;;;;;;;2.40;2.20;;;25.60;81.00;;;;;;5084762;28;20208;-69
2023/07/07 10:29:49;;;;;;;3.00;2.40;;;25.50;76.30;;;;;;5083844;28;20177;-69
2023/07/07 10:32:21;;;;;;;2.30;2.10;;;25.60;77.00;;;;;;5085921;28;20985;-69
2023/07/07 10:34:51;;;;;;;5.50;2.20;;;25.60;73.60;;;;;;5086840;28;20173;-69
2023/07/07 10:37:21;;;;;;;4.03;2.20;;;25.70;74.70;;;;;;5078141;28;20426;-69
2023/07/07 10:39:55;;;;;;;2.40;2.20;;;25.70;71.60;;;;;;5084217;28;22026;-69
2023/07/07 10:42:25;;;;;;;2.73;2.30;;;25.70;75.20;;;;;;5080845;28;20438;-69
2023/07/07 10:44:52;;;;;;;6.70;2.30;;;25.80;72.60;;;;;;5083023;28;20852;-69
2023/07/07 10:47:28;;;;;;;3.03;2.33;;;25.80;69.00;;;;;;5083168;28;20430;-69
2023/07/07 10:49:56;;;;;;;2.37;2.00;;;25.90;71.20;;;;;;5083457;28;20421;-69
2023/07/07 10:52:36;;;;;;;2.23;2.00;;;26.00;71.30;;;;;;5082928;28;20425;-69
2023/07/07 10:55:02;;;;;;;4.30;2.27;;;26.10;68.10;;;;;;5079623;28;20472;-69
2023/07/07 10:57:36;;;;;;;2.60;2.00;;;26.20;68.60;;;;;;5079714;28;20458;-69
2023/07/07 11:00:29;;;;;;;2.90;2.60;;;26.10;67.80;;;;;;5090428;28;20274;-69
2023/07/07 11:03:23;;;;;;;2.90;2.30;;;26.30;75.30;;;;;;5084644;28;20422;-69
2023/07/07 11:06:29;;;;;;;4.70;2.03;;;26.40;73.10;;;;;;5089110;28;20915;-69
2023/07/07 11:08:57;;;;;;;2.57;2.37;;;26.30;67.30;;;;;;5080621;28;20429;-69
2023/07/07 11:11:34;;;;;;;2.30;2.10;;;26.20;67.10;;;;;;5075759;28;20443;-69
2023/07/07 11:14:20;;;;;;;3.60;2.40;;;26.20;66.60;;;;;;5085438;28;20788;-69
2023/07/07 11:16:55;;;;;;;2.30;2.00;;;26.20;66.90;;;;;;5080609;28;20415;-69
2023/07/07 11:19:26;;;;;;;3.00;2.23;;;26.20;66.60;;;;;;5083268;28;20489;-69
2023/07/07 11:22:20;;;;;;;2.20;2.00;;;26.30;68.00;;;;;;5082537;28;20418;-69
2023/07/07 11:25:01;;;;;;;2.73;2.07;;;26.30;67.10;;;;;;5087021;28;20414;-69
2023/07/07 11:27:26;;;;;;;3.03;2.23;;;26.40;67.20;;;;;;5083429;28;20532;-69
2023/07/07 11:29:58;;;;;;;2.27;2.07;;;26.60;72.80;;;;;;5078347;28;20970;-69
2023/07/07 11:32:42;;;;;;;2.17;1.97;;;26.60;67.00;;;;;;5080737;28;20191;-69
2023/07/07 11:35:08;;;;;;;2.67;2.40;;;26.70;68.20;;;;;;5086085;28;20522;-69
2023/07/07 11:37:43;;;;;;;3.23;2.27;;;26.80;63.60;;;;;;5084555;28;20537;-69
2023/07/07 11:40:49;;;;;;;2.47;2.20;;;26.80;63.80;;;;;;5080336;28;20218;-69
2023/07/07 11:43:27;;;;;;;2.90;2.47;;;26.90;66.60;;;;;;5079480;28;20775;-69
2023/07/07 11:46:10;;;;;;;2.77;2.00;;;26.80;61.40;;;;;;5085331;28;20407;-69
2023/07/07 11:48:42;;;;;;;2.53;2.17;;;26.80;61.50;;;;;;5076846;28;20426;-69
2023/07/07 11:51:28;;;;;;;2.63;2.20;;;26.80;59.90;;;;;;5080042;28;20453;-69
2023/07/07 11:53:59;;;;;;;2.20;2.00;;;26.90;61.60;;;;;;5084232;28;20481;-69
2023/07/07 11:57:03;;;;;;;2.93;2.40;;;27.00;60.30;;;;;;5085754;28;20509;-69
2023/07/07 11:59:50;;;;;;;2.37;2.17;;;26.90;60.80;;;;;;5075060;28;20481;-69
2023/07/07 12:02:28;;;;;;;2.20;2.00;;;26.90;59.30;;;;;;5083006;28;20441;-69
2023/07/07 12:04:57;;;;;;;2.77;2.00;;;26.90;59.70;;;;;;5080483;28;20446;-69
2023/07/07 12:07:33;;;;;;;3.20;2.13;;;26.90;60.00;;;;;;5087005;28;20429;-69
2023/07/07 12:10:21;;;;;;;2.10;1.90;;;27.00;59.50;;;;;;5079153;28;20425;-69
2023/07/07 12:12:58;;;;;;;3.70;2.10;;;27.00;58.10;;;;;;5085320;28;20422;-69
2023/07/07 12:15:26;;;;;;;2.20;2.00;;;27.00;58.00;;;;;;5082913;28;20516;-69
2023/07/07 12:18:10;;;;;;;2.30;2.10;;;27.10;57.70;;;;;;5087059;28;21318;-70
2023/07/07 12:21:03;;;;;;;2.50;2.30;;;27.10;58.90;;;;;;5079314;28;20439;-69
2023/07/07 12:23:35;;;;;;;2.87;2.40;;;27.10;57.80;;;;;;5085247;28;20421;-69
2023/07/07 12:26:15;;;;;;;3.20;2.03;;;27.20;57.70;;;;;;5070080;28;20419;-69
2023/07/07 12:28:47;;;;;;;3.57;2.27;;;27.20;55.60;;;;;;5086842;28;20567;-69
2023/07/07 12:31:13;;;;;;;2.43;2.10;;;27.20;55.30;;;;;;5079047;28;20553;-69
2023/07/07 12:33:42;;;;;;;2.33;2.13;;;27.20;55.70;;;;;;5082720;28;20529;-69
2023/07/07 12:36:13;;;;;;;3.23;2.30;;;27.20;57.10;;;;;;5074862;28;20439;-69
2023/07/07 12:38:41;;;;;;;2.83;2.27;;;27.30;57.40;;;;;;5080299;28;20466;-69
2023/07/07 12:41:11;;;;;;;2.63;2.10;;;27.20;55.20;;;;;;5077383;28;20526;-69
2023/07/07 12:43:43;;;;;;;2.10;1.80;;;27.20;56.20;;;;;;5078138;28;20407;-69
2023/07/07 12:46:28;;;;;;;2.40;2.20;;;27.20;57.20;;;;;;5072890;28;20494;-69
2023/07/07 12:49:00;;;;;;;2.60;2.30;;;27.30;56.90;;;;;;5080402;28;20509;-69
2023/07/07 12:51:32;;;;;;;2.20;2.00;;;27.30;55.70;;;;;;5079289;28;20446;-69
2023/07/07 12:53:58;;;;;;;2.63;2.37;;;27.30;55.90;;;;;;5079509;28;20435;-69
2023/07/07 12:56:30;;;;;;;2.90;2.00;;;27.40;57.90;;;;;;5078717;28;20516;-69
2023/07/07 12:59:01;;;;;;;2.87;2.40;;;27.30;57.50;;;;;;5075301;28;20471;-69
2023/07/07 13:01:41;;;;;;;2.40;2.20;;;27.30;58.40;;;;;;5077020;28;20454;-69
2023/07/07 13:04:25;;;;;;;2.87;2.40;;;27.40;56.90;;;;;;5080906;28;20434;-69
2023/07/07 13:06:56;;;;;;;2.30;2.10;;;27.30;54.00;;;;;;5075940;28;20411;-69